Time;durP1;ratioP1;P1;durP2;ratioP2;P2;SDS_P1;SDS_P2;PMS_P1;PMS_P2;Temp;Humidity;BMP_temperature;BMP_pressure;BME280_temperature;BME280_humidity;BME280_pressure;Samples;Min_cycle;Max_cycle;Signal;HPM_P1;HPM_P2
2022/10/16 00:00:42;;;;;;;8.73;6.80;;;10.50;99.90;;;10.58;66.60;95597.31;5085611;28;20590;-53
2022/10/16 00:03:09;;;;;;;14.60;7.60;;;10.50;99.90;;;10.56;66.86;95607.97;5080920;28;20478;-55
2022/10/16 00:05:40;;;;;;;16.37;8.60;;;10.50;99.90;;;10.54;67.00;95603.81;5085734;28;20478;-55
2022/10/16 00:08:07;;;;;;;12.43;7.57;;;10.40;99.90;;;10.51;66.88;95612.75;5085617;28;20509;-52
2022/10/16 00:10:35;;;;;;;13.77;8.03;;;10.40;99.90;;;10.46;66.96;95612.28;5085439;28;20450;-55
2022/10/16 00:13:02;;;;;;;23.50;8.17;;;10.40;99.90;;;10.45;66.97;95610.63;5083466;28;20462;-56
2022/10/16 00:15:29;;;;;;;9.60;7.97;;;10.30;99.90;;;10.42;66.77;95608.22;5085687;28;20449;-53
2022/10/16 00:17:58;;;;;;;11.77;7.13;;;10.30;99.90;;;10.39;66.89;95611.94;5084703;28;20445;-55
2022/10/16 00:20:25;;;;;;;9.00;6.43;;;10.30;99.90;;;10.36;67.04;95619.22;5085160;28;20465;-55
2022/10/16 00:22:53;;;;;;;11.93;6.87;;;10.30;99.90;;;10.33;66.89;95628.22;5086011;28;20503;-55
2022/10/16 00:25:20;;;;;;;12.70;7.40;;;10.20;99.90;;;10.31;66.80;95624.81;5078325;28;20521;-55
2022/10/16 00:27:47;;;;;;;8.90;6.70;;;10.20;99.90;;;10.28;66.93;95621.59;5084742;28;20453;-55
2022/10/16 00:30:14;;;;;;;15.37;7.90;;;10.20;99.90;;;10.25;66.97;95625.28;5081155;28;20458;-52
2022/10/16 00:32:42;;;;;;;8.30;6.53;;;10.20;99.90;;;10.22;66.96;95625.53;5085131;28;20871;-54
2022/10/16 00:35:10;;;;;;;6.63;5.93;;;10.10;99.90;;;10.20;66.96;95622.19;5084998;28;20478;-55
2022/10/16 00:37:38;;;;;;;8.50;7.43;;;10.10;99.90;;;10.17;66.88;95622.41;5078274;28;20470;-55
2022/10/16 00:40:06;;;;;;;8.70;6.93;;;10.10;99.90;;;10.16;66.98;95631.25;5085560;28;20469;-55
2022/10/16 00:42:34;;;;;;;13.87;6.90;;;10.10;99.90;;;10.14;67.05;95617.41;5084383;28;20704;-56
2022/10/16 00:45:01;;;;;;;9.80;7.80;;;10.10;99.90;;;10.12;66.96;95619.31;5082756;28;20494;-54
2022/10/16 00:47:31;;;;;;;23.20;7.60;;;10.00;99.90;;;10.10;66.83;95615.97;5082251;28;20456;-55
2022/10/16 00:50:02;;;;;;;17.37;9.00;;;10.00;99.90;;;10.08;67.00;95617.88;5080771;28;20469;-55
2022/10/16 00:52:31;;;;;;;16.70;10.10;;;10.00;99.90;;;10.04;67.11;95612.84;5085569;28;20438;-55
2022/10/16 00:54:58;;;;;;;13.70;8.70;;;10.00;99.90;;;10.03;67.04;95618.22;5085180;28;20549;-56
2022/10/16 00:57:26;;;;;;;10.97;8.17;;;9.90;99.90;;;10.00;67.04;95619.28;5088887;28;20480;-54
2022/10/16 00:59:53;;;;;;;14.93;12.43;;;9.90;99.90;;;9.95;67.21;95620.63;5087397;28;20482;-56
2022/10/16 01:02:20;;;;;;;18.50;12.97;;;9.90;99.90;;;9.90;67.69;95620.97;5088615;28;20441;-55
2022/10/16 01:04:49;;;;;;;19.67;13.20;;;9.80;99.90;;;9.87;67.68;95618.56;5086972;28;20550;-55
2022/10/16 01:07:27;;;;;;;44.43;25.67;;;9.80;99.90;;;9.84;67.77;95626.69;5082344;28;20519;-55
2022/10/16 01:10:08;;;;;;;17.40;8.17;;;9.80;99.90;;;9.78;67.95;95619.28;5088974;28;20473;-54
2022/10/16 01:12:42;;;;;;;14.60;8.80;;;9.70;99.90;;;9.76;67.97;95634.28;5089265;28;21095;-53
2022/10/16 01:15:17;;;;;;;12.83;8.43;;;9.70;99.90;;;9.75;68.00;95627.38;5083552;28;20501;-54
2022/10/16 01:17:49;;;;;;;14.53;8.70;;;9.70;99.90;;;9.74;67.89;95630.97;5089583;28;20528;-55
2022/10/16 01:20:26;;;;;;;21.30;8.80;;;9.60;99.90;;;9.72;67.87;95625.00;5088371;28;20902;-54
2022/10/16 01:23:17;;;;;;;11.03;7.80;;;9.60;99.90;;;9.69;68.61;95619.00;5084705;28;20459;-55
2022/10/16 01:25:59;;;;;;;12.77;8.53;;;9.60;99.90;;;9.67;68.14;95620.91;5087348;28;20488;-55
2022/10/16 01:28:32;;;;;;;12.37;8.20;;;9.60;99.90;;;9.66;68.00;95613.16;5085231;28;20480;-57
2022/10/16 01:31:00;;;;;;;13.90;8.70;;;9.60;99.90;;;9.65;68.16;95609.69;5078493;28;20442;-55
2022/10/16 01:33:31;;;;;;;12.57;7.00;;;9.60;99.90;;;9.66;67.61;95611.34;5085791;28;20474;-55
2022/10/16 01:36:02;;;;;;;12.50;6.50;;;9.60;99.90;;;9.67;68.04;95620.09;5087355;28;20458;-55
2022/10/16 01:38:33;;;;;;;11.03;6.97;;;9.60;99.90;;;9.66;67.86;95621.84;5082053;28;20545;-55
2022/10/16 01:41:03;;;;;;;11.03;7.47;;;9.60;99.90;;;9.67;68.24;95625.34;5087975;28;20894;-55
2022/10/16 01:43:35;;;;;;;11.00;7.23;;;9.60;99.90;;;9.66;68.05;95628.91;5088586;28;20498;-53
2022/10/16 01:46:02;;;;;;;16.97;7.43;;;9.60;99.90;;;9.64;67.88;95626.41;5088913;28;20481;-54
2022/10/16 01:48:29;;;;;;;10.73;6.10;;;9.60;99.90;;;9.62;68.32;95627.44;5085278;28;20467;-54
2022/10/16 01:51:00;;;;;;;14.10;8.50;;;9.60;99.90;;;9.62;68.20;95632.69;5088174;28;20454;-56
2022/10/16 01:53:28;;;;;;;10.23;7.20;;;9.50;99.90;;;9.60;68.17;95629.38;5083696;28;20470;-54
2022/10/16 01:55:56;;;;;;;9.73;7.70;;;9.50;99.90;;;9.59;67.90;95628.53;5080350;28;21008;-53
2022/10/16 01:58:23;;;;;;;9.43;7.20;;;9.50;99.90;;;9.59;67.84;95638.19;5088093;28;20552;-56
2022/10/16 02:00:52;;;;;;;11.70;6.87;;;9.50;99.90;;;9.57;68.15;95643.56;5088227;28;20457;-56
2022/10/16 02:03:20;;;;;;;9.87;7.37;;;9.50;99.90;;;9.56;67.71;95639.28;5086628;28;20532;-54
2022/10/16 02:05:49;;;;;;;7.77;6.83;;;9.50;99.90;;;9.55;68.16;95644.63;5089225;28;20798;-55
2022/10/16 02:08:17;;;;;;;12.23;6.13;;;9.50;99.90;;;9.53;67.93;95650.00;5088256;28;21238;-55
2022/10/16 02:10:44;;;;;;;7.37;6.63;;;9.50;99.90;;;9.51;68.18;95642.25;5087470;28;20454;-54
2022/10/16 02:13:14;;;;;;;8.80;7.30;;;9.40;99.90;;;9.49;68.49;95653.81;5085744;28;20473;-54
2022/10/16 02:15:41;;;;;;;15.47;7.10;;;9.40;99.90;;;9.48;68.29;95657.38;5080877;28;20442;-54
2022/10/16 02:18:11;;;;;;;7.70;6.73;;;9.40;99.90;;;9.46;68.36;95646.97;5084171;28;21084;-54
2022/10/16 02:20:44;;;;;;;10.30;7.27;;;9.40;99.90;;;9.45;68.28;95657.59;5087162;28;20461;-54
2022/10/16 02:23:13;;;;;;;10.43;6.30;;;9.40;99.90;;;9.43;68.19;95659.50;5087345;28;20470;-54
2022/10/16 02:25:43;;;;;;;10.50;6.97;;;9.40;99.90;;;9.40;67.99;95670.22;5087680;28;20596;-55
2022/10/16 02:28:12;;;;;;;8.30;5.87;;;9.30;99.90;;;9.37;67.96;95665.22;5086122;28;20475;-54
2022/10/16 02:30:42;;;;;;;10.17;5.97;;;9.30;99.90;;;9.34;67.87;95671.50;5086918;28;20463;-55
2022/10/16 02:33:13;;;;;;;12.07;6.43;;;9.30;99.90;;;9.30;68.04;95668.28;5087135;28;20486;-55
2022/10/16 02:35:41;;;;;;;9.83;6.50;;;9.20;99.90;;;9.26;68.07;95661.56;5087261;28;20513;-56
2022/10/16 02:38:08;;;;;;;7.60;6.70;;;9.20;99.90;;;9.25;68.11;95667.78;5086822;28;21021;-54
2022/10/16 02:40:35;;;;;;;6.10;5.50;;;9.20;99.90;;;9.23;67.74;95659.16;5086661;28;20447;-53
2022/10/16 02:43:05;;;;;;;11.20;5.20;;;9.20;99.90;;;9.22;68.25;95660.13;5082605;28;20446;-55
2022/10/16 02:45:32;;;;;;;6.00;5.30;;;9.20;99.90;;;9.19;68.00;95668.25;5078132;28;21035;-54
2022/10/16 02:47:59;;;;;;;8.40;6.07;;;9.20;99.90;;;9.18;67.96;95671.81;5080990;28;20446;-55
2022/10/16 02:50:28;;;;;;;10.50;6.07;;;9.10;99.90;;;9.17;68.15;95680.66;5086531;28;20514;-55
2022/10/16 02:52:55;;;;;;;9.10;6.10;;;9.10;99.90;;;9.14;68.39;95675.63;5086726;28;20962;-53
2022/10/16 02:55:22;;;;;;;7.53;6.00;;;9.10;99.90;;;9.12;67.88;95683.59;5086930;28;20502;-54
2022/10/16 02:57:50;;;;;;;7.57;6.73;;;9.10;99.90;;;9.12;67.92;95686.22;5083333;28;20458;-54
2022/10/16 03:00:17;;;;;;;10.03;6.17;;;9.10;99.90;;;9.12;67.84;95685.38;5086584;28;20543;-54
2022/10/16 03:02:45;;;;;;;8.30;6.80;;;9.00;99.90;;;9.09;67.88;95689.06;5082738;28;20457;-55
2022/10/16 03:05:12;;;;;;;6.47;5.73;;;9.10;99.90;;;9.09;68.20;95685.59;5086965;28;21090;-56
2022/10/16 03:07:40;;;;;;;11.00;6.67;;;9.00;99.90;;;9.05;68.05;95684.16;5087350;28;20458;-55
2022/10/16 03:10:09;;;;;;;13.83;6.97;;;9.00;99.90;;;9.04;68.38;95691.16;5086603;28;20470;-53
2022/10/16 03:12:36;;;;;;;9.33;7.00;;;9.00;99.90;;;9.02;67.93;95689.63;5086389;28;20465;-54
2022/10/16 03:15:04;;;;;;;11.73;6.60;;;9.00;99.90;;;8.96;68.21;95689.09;5085421;28;20470;-54
2022/10/16 03:17:32;;;;;;;9.43;6.70;;;8.90;99.90;;;8.94;68.28;95691.00;5086653;28;20519;-54
2022/10/16 03:20:00;;;;;;;7.67;5.80;;;8.90;99.90;;;8.92;68.35;95690.28;5083706;28;20902;-53
2022/10/16 03:22:27;;;;;;;12.93;6.30;;;8.90;99.90;;;8.91;68.28;95685.13;5086132;28;20453;-54
2022/10/16 03:24:55;;;;;;;7.70;6.70;;;8.90;99.90;;;8.89;68.06;95702.75;5085992;28;20547;-56
2022/10/16 03:27:23;;;;;;;18.70;6.47;;;8.90;99.90;;;8.84;67.82;95700.47;5086922;28;20515;-55
2022/10/16 03:29:50;;;;;;;7.37;6.63;;;8.80;99.90;;;8.83;67.96;95697.94;5086001;28;20465;-53
2022/10/16 03:32:18;;;;;;;8.87;6.47;;;8.80;99.90;;;8.79;68.13;95697.31;5086271;28;20457;-55
2022/10/16 03:34:45;;;;;;;8.90;5.60;;;8.80;99.90;;;8.77;67.61;95700.06;5085796;28;20718;-53
2022/10/16 03:37:13;;;;;;;9.50;5.90;;;8.70;99.90;;;8.74;67.59;95695.03;5081904;28;20539;-55
2022/10/16 03:39:40;;;;;;;12.30;6.57;;;8.70;99.90;;;8.70;68.17;95693.56;5079506;28;20532;-55
2022/10/16 03:42:09;;;;;;;8.80;6.20;;;8.70;99.90;;;8.67;67.71;95692.94;5084020;28;20545;-54
2022/10/16 03:44:36;;;;;;;10.20;6.13;;;8.70;99.90;;;8.64;67.54;95690.53;5084598;28;20466;-56
2022/10/16 03:47:03;;;;;;;7.47;6.40;;;8.60;99.90;;;8.61;68.02;95689.81;5086851;28;20586;-53
2022/10/16 03:49:30;;;;;;;7.10;5.97;;;8.60;99.90;;;8.60;67.98;95688.13;5082225;28;20462;-56
2022/10/16 03:51:58;;;;;;;10.20;7.23;;;8.60;99.90;;;8.59;68.32;95694.31;5078740;28;20477;-54
2022/10/16 03:54:25;;;;;;;13.53;6.57;;;8.60;99.90;;;8.60;67.88;95703.88;5082229;28;20469;-53
2022/10/16 03:56:52;;;;;;;11.73;6.37;;;8.60;99.90;;;8.59;67.73;95686.44;5080443;28;20449;-53
2022/10/16 03:59:21;;;;;;;11.30;7.13;;;8.60;99.90;;;8.57;68.06;95690.97;5085045;28;20531;-54
2022/10/16 04:01:48;;;;;;;7.70;6.40;;;8.50;99.90;;;8.56;68.12;95702.38;5084933;28;20441;-55
2022/10/16 04:04:15;;;;;;;10.23;6.67;;;8.50;99.90;;;8.55;68.07;95695.50;5085332;28;20551;-56
2022/10/16 04:06:42;;;;;;;12.47;6.77;;;8.50;99.90;;;8.54;68.08;95695.59;5085289;28;21056;-56
2022/10/16 04:09:10;;;;;;;15.83;6.70;;;8.50;99.90;;;8.53;68.01;95699.16;5080776;28;20470;-55
2022/10/16 04:11:37;;;;;;;8.93;5.93;;;8.50;99.90;;;8.53;68.62;95699.16;5081715;28;20455;-55
2022/10/16 04:14:04;;;;;;;10.27;6.90;;;8.50;99.90;;;8.52;68.05;95700.09;5074512;28;20483;-55
2022/10/16 04:16:33;;;;;;;10.67;7.10;;;8.50;99.90;;;8.50;67.91;95700.19;5081734;28;20445;-55
2022/10/16 04:19:01;;;;;;;9.73;7.03;;;8.50;99.90;;;8.48;67.80;95699.47;5081328;28;20817;-56
2022/10/16 04:21:28;;;;;;;14.70;6.67;;;8.50;99.90;;;8.47;68.41;95689.09;5078991;28;20977;-57
2022/10/16 04:23:55;;;;;;;20.53;6.60;;;8.40;99.90;;;8.43;68.11;95691.94;5083562;28;20479;-57
2022/10/16 04:26:22;;;;;;;10.40;6.43;;;8.40;99.90;;;8.42;68.56;95695.44;5081681;28;20490;-55
2022/10/16 04:28:50;;;;;;;10.77;7.03;;;8.40;99.90;;;8.41;68.50;95704.28;5083637;28;20474;-55
2022/10/16 04:31:17;;;;;;;12.40;6.97;;;8.40;99.90;;;8.40;68.55;95697.34;5087596;28;20453;-56
2022/10/16 04:33:46;;;;;;;8.00;6.67;;;8.40;99.90;;;8.39;68.56;95697.47;5083985;28;20482;-55
2022/10/16 04:36:13;;;;;;;11.10;7.33;;;8.40;99.90;;;8.39;68.36;95700.06;5079541;28;20438;-55
2022/10/16 04:38:40;;;;;;;19.57;8.80;;;8.40;99.90;;;8.37;68.14;95705.44;5086658;28;20997;-54
2022/10/16 04:41:08;;;;;;;9.30;7.53;;;8.30;99.90;;;8.38;68.19;95704.50;5086117;28;20502;-58
2022/10/16 04:43:35;;;;;;;8.93;7.70;;;8.30;99.90;;;8.38;68.22;95708.88;5084469;28;20471;-55
2022/10/16 04:46:04;;;;;;;22.73;9.00;;;8.40;99.90;;;8.39;68.29;95710.56;5083516;28;21024;-56
2022/10/16 04:48:31;;;;;;;15.30;8.77;;;8.40;99.90;;;8.39;68.15;95721.03;5082599;28;20545;-53
2022/10/16 04:51:00;;;;;;;12.27;8.40;;;8.40;99.90;;;8.34;68.76;95713.50;5085922;28;20449;-55
2022/10/16 04:53:27;;;;;;;22.63;7.27;;;8.40;99.90;;;8.39;68.27;95726.28;5088031;28;20474;-54
2022/10/16 04:55:55;;;;;;;12.33;7.83;;;8.40;99.90;;;8.39;68.19;95721.88;5079416;28;20906;-55
2022/10/16 04:58:23;;;;;;;12.53;6.93;;;8.40;99.90;;;8.39;68.47;95724.50;5088061;28;20561;-54
2022/10/16 05:00:50;;;;;;;13.00;7.10;;;8.40;99.90;;;8.40;68.75;95725.34;5087643;28;20835;-54
2022/10/16 05:03:17;;;;;;;7.90;6.73;;;8.40;99.90;;;8.42;68.58;95731.31;5085688;28;20894;-56
2022/10/16 05:05:45;;;;;;;9.20;6.63;;;8.40;99.90;;;8.42;68.76;95734.78;5089063;28;20453;-54
2022/10/16 05:08:14;;;;;;;16.47;8.03;;;8.40;99.90;;;8.45;68.85;95730.31;5088687;28;20473;-56
2022/10/16 05:10:42;;;;;;;18.53;7.33;;;8.40;99.90;;;8.46;68.54;95738.06;5089086;28;20958;-55
2022/10/16 05:13:09;;;;;;;11.90;7.20;;;8.40;99.90;;;8.50;68.43;95741.31;5077732;28;20474;-54
2022/10/16 05:15:37;;;;;;;21.93;9.63;;;8.40;99.90;;;8.52;68.34;95739.41;5085769;28;20531;-57
2022/10/16 05:18:04;;;;;;;15.57;7.50;;;8.50;99.90;;;8.57;68.61;95737.34;5081252;28;20469;-56
2022/10/16 05:20:31;;;;;;;14.57;8.40;;;8.50;99.90;;;8.59;68.67;95733.66;5074923;28;20487;-55
2022/10/16 05:22:58;;;;;;;21.30;8.00;;;8.60;99.90;;;8.64;68.86;95740.38;5086279;28;20797;-57
2022/10/16 05:25:27;;;;;;;16.20;8.97;;;8.60;99.90;;;8.69;68.82;95746.13;5088662;28;21272;-56
2022/10/16 05:27:54;;;;;;;19.37;8.07;;;8.60;99.90;;;8.73;68.49;95742.34;5082908;28;20483;-58
2022/10/16 05:30:22;;;;;;;8.30;7.20;;;8.70;99.90;;;8.77;68.89;95747.28;5088641;28;20461;-54
2022/10/16 05:32:49;;;;;;;14.27;8.97;;;8.70;99.90;;;8.83;68.61;95751.25;5087524;28;20446;-54
2022/10/16 05:35:17;;;;;;;10.83;7.10;;;8.80;99.90;;;8.87;68.58;95757.94;5087804;28;20488;-55
2022/10/16 05:37:45;;;;;;;9.17;7.10;;;8.80;99.90;;;8.92;68.61;95758.50;5086312;28;21005;-56
2022/10/16 05:40:13;;;;;;;7.53;6.33;;;8.90;99.90;;;8.95;68.38;95762.66;5084663;28;20441;-54
2022/10/16 05:42:42;;;;;;;14.83;8.20;;;8.90;99.90;;;9.01;68.52;95764.84;5088086;28;20486;-56
2022/10/16 05:45:11;;;;;;;9.60;7.20;;;9.00;99.90;;;9.09;68.17;95766.94;5087064;28;20466;-55
2022/10/16 05:47:38;;;;;;;20.13;10.17;;;9.00;99.90;;;9.22;68.91;95764.31;5088105;28;20512;-58
2022/10/16 05:50:07;;;;;;;25.10;8.13;;;9.20;99.90;;;9.40;68.17;95770.00;5084817;28;20465;-55
2022/10/16 05:52:34;;;;;;;11.23;7.13;;;9.30;99.90;;;9.65;68.09;95769.91;5083926;28;20457;-56
2022/10/16 05:55:01;;;;;;;14.93;7.77;;;9.50;99.90;;;10.03;67.80;95768.03;5084872;28;20477;-56
2022/10/16 05:57:29;;;;;;;9.10;6.50;;;9.80;99.90;;;10.46;67.12;95766.63;5086314;28;20593;-56
2022/10/16 05:59:58;;;;;;;13.40;7.60;;;10.20;99.90;;;10.92;66.17;95768.31;5088184;28;20474;-54
2022/10/16 06:02:25;;;;;;;9.10;6.70;;;10.60;99.90;;;11.36;65.20;95779.81;5079555;28;20454;-57
2022/10/16 06:04:54;;;;;;;14.50;7.33;;;11.00;99.90;;;11.80;64.14;95782.44;5085487;28;20477;-55
2022/10/16 06:07:21;;;;;;;10.30;6.97;;;11.50;99.90;;;12.23;63.28;95780.75;5087573;28;20572;-55
2022/10/16 06:09:50;;;;;;;7.93;5.87;;;11.90;99.60;;;12.68;61.92;95783.97;5079115;28;20502;-56
2022/10/16 06:12:18;;;;;;;16.57;6.10;;;12.30;99.10;;;13.13;61.66;95790.72;5072313;28;20465;-55
2022/10/16 06:14:47;;;;;;;6.33;5.57;;;12.70;98.40;;;13.57;60.43;95801.91;5075107;28;20481;-57
2022/10/16 06:17:16;;;;;;;20.50;5.17;;;13.20;98.00;;;14.03;59.42;95799.59;5080946;28;20486;-57
2022/10/16 06:19:44;;;;;;;7.77;6.10;;;13.60;97.10;;;14.46;58.40;95797.50;5089077;28;20478;-55
2022/10/16 06:22:12;;;;;;;14.50;6.40;;;14.10;96.50;;;14.89;57.36;95798.88;5088974;28;20446;-54
2022/10/16 06:24:39;;;;;;;13.00;5.80;;;14.50;95.60;;;15.34;57.08;95798.13;5086694;28;20561;-55
2022/10/16 06:27:06;;;;;;;11.20;6.13;;;14.90;95.30;;;15.78;55.94;95805.47;5084658;28;21103;-55
2022/10/16 06:29:34;;;;;;;7.17;4.83;;;15.30;94.30;;;16.20;55.54;95799.59;5087346;28;20906;-55
2022/10/16 06:32:01;;;;;;;6.33;5.63;;;15.80;93.90;;;16.67;54.22;95801.16;5087011;28;20466;-56
2022/10/16 06:34:30;;;;;;;6.87;5.47;;;16.20;93.10;;;17.14;52.97;95803.50;5087317;28;20484;-55
2022/10/16 06:36:57;;;;;;;10.60;5.87;;;16.70;92.30;;;17.62;52.56;95811.03;5087137;28;20461;-56
2022/10/16 06:39:24;;;;;;;8.43;6.03;;;17.10;91.90;;;18.13;52.26;95811.06;5076834;28;20470;-54
2022/10/16 06:41:52;;;;;;;14.93;8.10;;;17.60;91.30;;;18.63;50.42;95813.59;5072709;28;20458;-53
2022/10/16 06:44:19;;;;;;;9.77;7.93;;;18.10;90.00;;;19.12;50.43;95812.75;5077766;28;20565;-53
2022/10/16 06:46:46;;;;;;;12.37;7.37;;;18.60;88.90;;;19.65;50.02;95817.59;5078716;28;20525;-60
2022/10/16 06:49:20;;;;;;;14.03;8.20;;;19.10;87.70;;;20.18;49.38;95817.88;5085271;28;20539;-55
2022/10/16 06:51:49;;;;;;;11.17;6.80;;;19.60;86.50;;;20.69;48.79;95820.88;5077397;28;20499;-54
2022/10/16 06:54:17;;;;;;;14.40;9.90;;;20.10;85.10;;;21.13;47.76;95820.16;5086301;28;20535;-53
2022/10/16 06:56:45;;;;;;;17.30;8.40;;;20.50;82.50;;;21.61;46.85;95830.56;5069684;28;20451;-55
2022/10/16 06:59:13;;;;;;;9.67;7.17;;;21.00;80.90;;;22.06;46.35;95832.34;5069580;28;20478;-55
2022/10/16 07:01:40;;;;;;;12.40;7.03;;;21.50;78.70;;;22.56;45.63;95834.19;5071070;28;20538;-54
2022/10/16 07:04:07;;;;;;;9.63;6.70;;;22.00;76.10;;;23.04;43.89;95833.56;5075186;28;20495;-55
2022/10/16 07:06:35;;;;;;;7.93;7.07;;;22.50;73.20;;;23.53;44.12;95831.06;5078265;28;20485;-54
2022/10/16 07:09:08;;;;;;;6.87;6.23;;;23.00;72.30;;;24.02;42.62;95835.47;5069176;28;21037;-55
2022/10/16 07:11:35;;;;;;;8.97;6.90;;;23.70;68.60;;;24.45;41.64;95842.47;5081641;28;20461;-54
2022/10/16 07:14:03;;;;;;;12.17;6.97;;;24.10;67.00;;;24.89;41.32;95833.03;5077386;28;20473;-56
2022/10/16 07:16:31;;;;;;;8.87;7.07;;;24.70;64.90;;;25.34;40.29;95835.13;5068583;28;20831;-57
2022/10/16 07:19:00;;;;;;;12.80;7.80;;;25.10;62.50;;;25.68;39.77;95850.19;5079618;28;21032;-56
2022/10/16 07:21:28;;;;;;;8.17;7.33;;;25.50;60.50;;;26.01;38.89;95840.41;5086629;28;20566;-56
2022/10/16 07:23:57;;;;;;;7.77;6.37;;;25.90;58.90;;;26.23;37.94;95839.06;5080972;28;20485;-55
2022/10/16 07:26:26;;;;;;;10.33;6.50;;;26.20;56.60;;;26.43;37.28;95841.69;5087304;28;20544;-56
2022/10/16 07:28:54;;;;;;;13.43;6.87;;;26.40;56.00;;;26.64;36.73;95840.50;5086700;28;20470;-53
2022/10/16 07:31:22;;;;;;;11.07;6.03;;;26.70;54.30;;;26.83;36.79;95833.38;5083281;28;20456;-56
2022/10/16 07:33:49;;;;;;;11.03;7.60;;;27.00;54.00;;;27.03;35.99;95840.47;5069438;28;20516;-54
2022/10/16 07:36:17;;;;;;;10.00;6.70;;;27.30;53.20;;;27.25;34.78;95845.50;5081690;28;20920;-55
2022/10/16 07:38:44;;;;;;;10.10;7.30;;;27.50;50.90;;;27.18;34.93;95848.28;5080369;28;20481;-55
2022/10/16 07:41:13;;;;;;;10.47;7.00;;;27.50;50.40;;;27.01;34.58;95843.41;5081878;28;20445;-56
2022/10/16 07:43:45;;;;;;;8.87;6.70;;;27.40;50.00;;;27.00;34.94;95846.31;5083001;28;20633;-54
2022/10/16 07:46:13;;;;;;;8.10;7.27;;;27.30;50.50;;;27.08;34.73;95837.97;5078146;28;20460;-54
2022/10/16 07:48:40;;;;;;;14.73;6.93;;;27.30;50.10;;;27.05;34.46;95838.41;5068975;28;20886;-53
2022/10/16 07:51:08;;;;;;;165.03;13.23;;;27.20;50.50;;;26.92;34.27;95839.31;5072387;28;20458;-56
2022/10/16 07:53:35;;;;;;;13.17;7.57;;;26.90;49.00;;;26.88;34.14;95851.63;5079861;28;20473;-55
2022/10/16 07:56:06;;;;;;;10.53;6.10;;;26.70;48.90;;;26.89;34.26;95849.72;5080938;28;20453;-59
2022/10/16 07:58:34;;;;;;;10.50;7.20;;;26.70;49.60;;;26.98;34.00;95849.25;5085925;28;20878;-54
2022/10/16 08:01:04;;;;;;;14.00;7.40;;;26.70;49.60;;;26.93;33.79;95850.97;5085605;28;20450;-56
2022/10/16 08:03:32;;;;;;;17.40;6.70;;;26.50;49.10;;;26.68;34.10;95851.75;5085089;28;20492;-56
2022/10/16 08:05:59;;;;;;;8.17;6.53;;;26.30;49.10;;;26.33;34.71;95851.28;5085457;28;20452;-54
2022/10/16 08:08:27;;;;;;;7.70;6.50;;;26.10;49.30;;;25.93;35.09;95850.38;5085037;28;20500;-56
2022/10/16 08:10:54;;;;;;;9.33;6.57;;;25.70;50.00;;;25.69;35.89;95843.78;5084073;28;20460;-56
2022/10/16 08:13:21;;;;;;;10.07;6.80;;;25.50;51.10;;;25.61;35.83;95844.00;5078435;28;20470;-57
2022/10/16 08:15:49;;;;;;;15.57;7.00;;;25.30;51.50;;;25.62;36.54;95837.56;5085667;28;20571;-58
2022/10/16 08:18:17;;;;;;;10.20;6.30;;;25.20;52.00;;;25.69;36.26;95834.88;5084418;28;20589;-56
2022/10/16 08:20:45;;;;;;;10.67;6.17;;;25.20;51.80;;;25.76;36.28;95836.53;5081434;28;20459;-56
2022/10/16 08:23:13;;;;;;;11.57;6.60;;;25.30;51.80;;;25.82;35.93;95832.13;5081757;28;20556;-56
2022/10/16 08:25:40;;;;;;;10.03;5.73;;;25.30;51.50;;;25.76;35.90;95839.22;5076322;28;20473;-56
2022/10/16 08:28:08;;;;;;;7.90;5.63;;;25.30;51.50;;;25.71;35.81;95841.69;5084781;28;20936;-56
2022/10/16 08:30:35;;;;;;;7.17;6.20;;;25.20;51.00;;;25.65;35.68;95837.16;5081682;28;20472;-55
2022/10/16 08:33:03;;;;;;;9.97;6.20;;;25.20;51.10;;;25.63;35.90;95839.22;5082089;28;20450;-56
2022/10/16 08:35:32;;;;;;;17.10;7.87;;;25.20;51.10;;;25.63;35.27;95830.34;5083510;28;20510;-56
2022/10/16 08:37:59;;;;;;;14.97;10.17;;;25.20;50.90;;;25.58;36.09;95831.78;5074865;28;20574;-56
2022/10/16 08:40:28;;;;;;;11.37;6.83;;;25.10;51.10;;;25.60;35.65;95839.66;5080417;28;20958;-55
2022/10/16 08:43:13;;;;;;;10.80;6.77;;;25.10;50.70;;;25.63;34.41;95839.22;5082895;28;20448;-58
2022/10/16 08:45:58;;;;;;;10.60;6.10;;;25.10;50.30;;;25.56;34.18;95838.41;5085364;28;20483;-55
2022/10/16 08:48:28;;;;;;;7.43;5.73;;;25.10;50.00;;;25.56;35.12;95835.72;5085331;28;20495;-54
2022/10/16 08:50:57;;;;;;;4.43;4.13;;;25.00;50.00;;;25.54;34.72;95827.84;5084979;28;20453;-54
2022/10/16 08:53:29;;;;;;;7.23;5.17;;;25.00;49.60;;;25.50;33.96;95833.84;5085533;28;20508;-56
2022/10/16 08:55:58;;;;;;;6.80;5.33;;;25.00;49.30;;;25.53;34.45;95842.38;5077758;28;20442;-57
2022/10/16 08:58:28;;;;;;;5.10;4.73;;;25.00;49.70;;;25.57;34.31;95840.06;5083639;28;20512;-55
2022/10/16 09:00:57;;;;;;;4.70;4.30;;;25.00;49.60;;;25.61;34.48;95840.47;5085212;28;20464;-55
2022/10/16 09:03:44;;;;;;;12.90;4.93;;;25.10;49.80;;;25.73;33.59;95839.63;5083489;28;20569;-56
2022/10/16 09:06:23;;;;;;;10.60;5.50;;;25.20;49.30;;;25.82;33.83;95840.22;5085579;28;20498;-57
2022/10/16 09:09:08;;;;;;;15.40;4.47;;;25.30;49.00;;;25.70;33.95;95841.91;5084691;28;20493;-56
2022/10/16 09:11:43;;;;;;;8.70;6.57;;;25.30;48.30;;;25.55;33.91;95836.78;5079457;28;20981;-57
2022/10/16 09:14:25;;;;;;;4.13;3.73;;;25.20;48.40;;;25.56;33.56;95835.72;5085542;28;20530;-55
2022/10/16 09:16:55;;;;;;;5.93;3.57;;;25.10;48.70;;;25.69;33.89;95834.88;5088989;28;20449;-53
2022/10/16 09:19:29;;;;;;;4.50;3.53;;;25.10;48.70;;;25.81;33.65;95832.34;5085711;28;20473;-55
2022/10/16 09:21:57;;;;;;;5.63;4.00;;;25.30;48.10;;;25.99;33.28;95837.09;5089033;28;20453;-57
2022/10/16 09:24:26;;;;;;;4.10;3.40;;;25.40;47.90;;;25.98;32.57;95835.44;5088352;28;20997;-56
2022/10/16 09:26:53;;;;;;;5.80;3.60;;;25.40;46.50;;;25.86;32.86;95840.63;5083916;28;20951;-55
2022/10/16 09:29:24;;;;;;;6.43;3.90;;;25.50;46.90;;;25.75;32.54;95834.84;5076189;28;20461;-56
2022/10/16 09:31:52;;;;;;;5.10;3.77;;;25.40;46.70;;;25.85;33.00;95834.41;5082062;28;20437;-55
2022/10/16 09:34:27;;;;;;;3.40;3.10;;;25.40;47.30;;;26.03;32.49;95838.34;5087870;28;20893;-56
2022/10/16 09:36:54;;;;;;;4.50;3.33;;;25.50;47.20;;;26.18;32.86;95843.44;5082194;28;20957;-55
2022/10/16 09:39:23;;;;;;;5.30;3.90;;;25.60;47.30;;;26.24;31.67;95840.75;5088403;28;21017;-55
2022/10/16 09:41:50;;;;;;;3.90;3.60;;;25.70;45.50;;;26.34;32.27;95840.28;5078415;28;20453;-57
2022/10/16 09:44:22;;;;;;;8.13;3.57;;;25.80;46.60;;;26.44;32.08;95829.81;5078972;28;21009;-52
2022/10/16 09:46:49;;;;;;;4.80;3.67;;;25.90;46.30;;;26.54;32.05;95832.06;5078570;28;20517;-56
2022/10/16 09:49:23;;;;;;;5.70;4.67;;;26.00;45.90;;;26.61;31.79;95832.84;5082710;28;20910;-55
2022/10/16 09:51:50;;;;;;;13.93;4.20;;;26.10;45.90;;;26.67;29.90;95823.09;5086213;28;20442;-55
2022/10/16 09:54:19;;;;;;;6.53;3.43;;;26.20;42.80;;;26.67;31.45;95815.00;5084051;28;20477;-55
2022/10/16 09:56:51;;;;;;;4.73;3.23;;;26.20;45.00;;;26.68;31.44;95816.66;5077612;28;20562;-56
2022/10/16 09:59:20;;;;;;;7.40;4.40;;;26.20;44.80;;;26.74;31.56;95815.78;5085532;28;20464;-57
2022/10/16 10:01:48;;;;;;;6.40;3.90;;;26.30;45.00;;;26.77;31.07;95815.34;5080338;28;20446;-56
2022/10/16 10:04:15;;;;;;;4.70;3.43;;;26.30;44.70;;;26.59;30.98;95813.34;5084600;28;20480;-53
2022/10/16 10:06:45;;;;;;;3.03;2.80;;;26.20;44.20;;;26.49;30.75;95812.97;5083192;28;20457;-56
2022/10/16 10:09:19;;;;;;;4.13;3.70;;;26.10;44.20;;;26.49;30.79;95812.97;5085811;28;20500;-55
2022/10/16 10:11:50;;;;;;;6.10;3.30;;;26.10;44.40;;;26.51;31.28;95816.31;5084048;28;20434;-56
2022/10/16 10:14:35;;;;;;;6.40;3.87;;;26.10;44.50;;;26.32;30.31;95811.84;5079272;28;20457;-56
2022/10/16 10:17:11;;;;;;;4.60;3.20;;;25.90;43.40;;;26.10;31.42;95804.06;5077090;28;20449;-55
2022/10/16 10:19:40;;;;;;;3.20;2.90;;;25.70;44.40;;;25.98;31.22;95812.00;5080627;28;20869;-56
2022/10/16 10:22:23;;;;;;;6.00;2.90;;;25.60;44.30;;;25.77;30.63;95805.81;5083070;28;20450;-56
2022/10/16 10:25:17;;;;;;;6.50;3.53;;;25.40;43.90;;;25.59;31.55;95802.97;5075950;28;20481;-56
2022/10/16 10:28:01;;;;;;;4.87;3.30;;;25.20;44.70;;;25.54;31.37;95794.69;5079584;28;20473;-57
2022/10/16 10:30:32;;;;;;;3.10;2.90;;;25.20;44.80;;;25.38;31.84;95794.09;5082819;28;20468;-54